createdAt,value
2023-03-31T00:01:25.040Z,1.00
2023-03-31T00:04:02.932Z,16.50
2023-03-31T00:06:38.686Z,16.80
2023-03-31T00:09:12.239Z,13.40
2023-03-31T00:11:41.727Z,13.30
2023-03-31T00:14:10.404Z,7.80
2023-03-31T00:16:39.994Z,1.00
2023-03-31T00:19:11.064Z,1.00
2023-03-31T00:21:39.481Z,1.00
2023-03-31T00:24:08.744Z,1.00
2023-03-31T00:26:38.594Z,1.00
2023-03-31T00:29:09.662Z,1.00
2023-03-31T00:31:39.726Z,1.00
2023-03-31T00:34:08.780Z,1.00
2023-03-31T00:36:46.652Z,1.00
2023-03-31T00:39:17.425Z,1.00
2023-03-31T00:41:46.675Z,1.00
2023-03-31T00:44:30.576Z,1.00
2023-03-31T00:47:20.909Z,1.00
2023-03-31T00:49:53.835Z,1.00
2023-03-31T00:52:31.845Z,1.00
2023-03-31T00:55:06.346Z,1.00
2023-03-31T00:57:40.128Z,1.00
2023-03-31T01:00:19.383Z,1.00
2023-03-31T01:03:01.022Z,1.00
2023-03-31T01:05:35.407Z,1.00
2023-03-31T01:08:06.578Z,1.00
2023-03-31T01:10:42.491Z,1.00
2023-03-31T01:13:14.124Z,1.00
2023-03-31T01:15:44.328Z,1.00
2023-03-31T01:18:14.663Z,1.00
2023-03-31T01:21:04.627Z,1.00
2023-03-31T01:23:51.440Z,1.00
2023-03-31T01:26:28.936Z,1.00
2023-03-31T01:29:55.786Z,1.00
2023-03-31T01:32:56.229Z,1.00
2023-03-31T01:35:47.866Z,1.00
2023-03-31T01:38:28.397Z,1.00
2023-03-31T01:41:09.070Z,1.00
2023-03-31T01:43:40.507Z,1.00
2023-03-31T01:46:51.950Z,1.00
2023-03-31T01:49:52.886Z,1.00
2023-03-31T01:52:26.172Z,1.00
2023-03-31T01:55:07.271Z,1.00
2023-03-31T01:57:49.402Z,1.00
2023-03-31T02:00:20.896Z,1.00
2023-03-31T02:02:52.353Z,1.00
2023-03-31T02:05:29.368Z,1.00
2023-03-31T02:08:10.383Z,1.00
2023-03-31T02:10:40.475Z,1.00
2023-03-31T02:13:10.639Z,1.00
2023-03-31T02:15:42.673Z,1.00
2023-03-31T02:18:18.056Z,1.00
2023-03-31T02:20:50.287Z,1.00
2023-03-31T02:23:23.476Z,1.00
2023-03-31T02:26:01.762Z,1.00
2023-03-31T02:28:31.094Z,1.00
2023-03-31T02:31:09.406Z,1.00
2023-03-31T02:33:38.148Z,1.00
2023-03-31T02:36:08.515Z,1.00
2023-03-31T02:38:53.291Z,1.00
2023-03-31T02:41:21.719Z,1.00
2023-03-31T02:43:50.110Z,1.00
2023-03-31T02:46:18.632Z,1.00
2023-03-31T02:48:51.274Z,1.00
2023-03-31T02:51:47.678Z,1.00
2023-03-31T02:54:37.996Z,1.00
2023-03-31T02:57:36.060Z,1.00
2023-03-31T03:00:26.059Z,1.00
2023-03-31T03:03:20.596Z,1.00
2023-03-31T03:06:01.788Z,1.00
2023-03-31T03:09:02.821Z,1.00
2023-03-31T03:11:48.530Z,1.00
2023-03-31T03:14:33.580Z,1.00
2023-03-31T03:17:23.648Z,1.00
2023-03-31T03:20:02.357Z,1.00
2023-03-31T03:22:31.183Z,1.00
2023-03-31T03:24:59.807Z,1.00
2023-03-31T03:27:29.252Z,1.00
2023-03-31T03:29:57.645Z,1.00
2023-03-31T03:32:26.552Z,1.00
2023-03-31T03:34:54.954Z,1.00
2023-03-31T03:37:23.381Z,1.00
2023-03-31T03:39:51.761Z,1.00
2023-03-31T03:42:20.240Z,1.00
2023-03-31T03:44:48.660Z,1.00
2023-03-31T03:47:17.411Z,1.00
2023-03-31T03:49:45.888Z,1.00
2023-03-31T03:52:14.331Z,1.00
2023-03-31T03:54:42.773Z,1.00
2023-03-31T03:57:11.820Z,1.00
2023-03-31T03:59:40.227Z,1.00
2023-03-31T04:02:08.687Z,1.00
2023-03-31T04:04:37.145Z,1.00
2023-03-31T04:07:05.584Z,1.00
2023-03-31T04:09:33.981Z,1.00
2023-03-31T04:12:02.767Z,1.00
2023-03-31T04:14:31.217Z,1.00
2023-03-31T04:16:59.585Z,1.00
2023-03-31T04:19:28.336Z,1.00
2023-03-31T04:22:03.459Z,1.00
2023-03-31T04:24:33.677Z,1.00
2023-03-31T04:27:03.648Z,1.00
2023-03-31T04:29:34.458Z,1.00
2023-03-31T04:32:03.022Z,1.00
2023-03-31T04:34:37.239Z,1.00
2023-03-31T04:37:05.838Z,1.00
2023-03-31T04:39:34.249Z,1.00
2023-03-31T04:42:03.218Z,1.00
2023-03-31T04:44:31.912Z,1.00
2023-03-31T04:47:03.662Z,1.00
2023-03-31T04:49:34.302Z,1.00
2023-03-31T04:52:02.955Z,1.00
2023-03-31T04:54:31.518Z,1.00
2023-03-31T04:56:59.953Z,1.00
2023-03-31T04:59:28.366Z,1.00
2023-03-31T05:01:56.804Z,1.00
2023-03-31T05:04:25.274Z,1.00
2023-03-31T05:06:53.738Z,1.00
2023-03-31T05:09:22.929Z,1.00
2023-03-31T05:11:51.502Z,1.00
2023-03-31T05:14:20.268Z,1.00
2023-03-31T05:16:48.682Z,1.00
2023-03-31T05:19:19.037Z,1.00
2023-03-31T05:21:47.684Z,1.00
2023-03-31T05:24:16.148Z,1.00
2023-03-31T05:26:49.282Z,1.00
2023-03-31T05:29:17.946Z,1.00
2023-03-31T05:31:46.812Z,1.00
2023-03-31T05:34:15.895Z,1.00
2023-03-31T05:36:44.586Z,1.00
2023-03-31T05:39:12.984Z,1.00
2023-03-31T05:41:42.033Z,1.00
2023-03-31T05:44:10.405Z,1.00
2023-03-31T05:46:38.875Z,1.00
2023-03-31T05:49:07.906Z,1.00
2023-03-31T05:51:36.649Z,1.00
2023-03-31T05:54:05.067Z,1.00
2023-03-31T05:56:33.457Z,1.00
2023-03-31T05:59:02.666Z,1.00
2023-03-31T06:01:31.165Z,1.00
2023-03-31T06:03:59.672Z,1.00
2023-03-31T06:06:28.746Z,1.00
2023-03-31T06:08:57.209Z,1.00
2023-03-31T06:11:25.693Z,1.00
2023-03-31T06:13:54.085Z,1.00
2023-03-31T06:16:22.747Z,1.00
2023-03-31T06:18:52.274Z,1.00
2023-03-31T06:21:22.463Z,1.00
2023-03-31T06:23:51.082Z,1.00
2023-03-31T06:26:20.867Z,1.00
2023-03-31T06:28:49.817Z,1.00
2023-03-31T06:31:20.856Z,1.00
2023-03-31T06:33:49.700Z,1.00
2023-03-31T06:36:20.171Z,1.00
2023-03-31T06:38:48.949Z,1.00
2023-03-31T06:41:19.324Z,1.00
2023-03-31T06:43:47.853Z,1.00
2023-03-31T06:46:16.840Z,1.00
2023-03-31T06:48:45.412Z,1.00
2023-03-31T06:51:14.043Z,1.00
2023-03-31T06:53:42.494Z,1.00
2023-03-31T06:56:10.912Z,1.00
2023-03-31T06:58:39.424Z,1.00
2023-03-31T07:01:08.485Z,1.00
2023-03-31T07:03:37.193Z,1.00
2023-03-31T07:06:06.373Z,1.00
2023-03-31T07:08:35.135Z,1.00
2023-03-31T07:11:04.128Z,1.00
2023-03-31T07:13:32.729Z,1.00
2023-03-31T07:16:01.276Z,1.00
2023-03-31T07:18:34.968Z,1.00
2023-03-31T07:21:08.095Z,1.00
2023-03-31T07:23:38.394Z,1.00
2023-03-31T07:26:07.437Z,1.00
2023-03-31T07:28:36.159Z,1.00
2023-03-31T07:31:04.933Z,1.00
2023-03-31T07:33:33.566Z,1.00
2023-03-31T07:36:12.792Z,1.00
2023-03-31T07:38:43.729Z,1.00
2023-03-31T07:41:17.775Z,1.00
2023-03-31T07:43:46.769Z,1.00
2023-03-31T07:46:17.827Z,1.00
2023-03-31T07:48:47.507Z,1.00
2023-03-31T07:51:18.568Z,1.00
2023-03-31T07:53:47.900Z,1.00
2023-03-31T07:56:18.194Z,1.00
2023-03-31T07:58:47.419Z,1.00
2023-03-31T08:01:20.872Z,1.00
2023-03-31T08:03:50.212Z,1.00
2023-03-31T08:06:23.904Z,1.00
2023-03-31T08:08:53.127Z,1.00
2023-03-31T08:11:22.022Z,1.00
2023-03-31T08:13:50.513Z,1.00
2023-03-31T08:16:19.189Z,1.00
2023-03-31T08:18:47.620Z,1.00
2023-03-31T08:21:16.122Z,1.00
2023-03-31T08:23:44.699Z,1.00
2023-03-31T08:26:17.830Z,1.00
2023-03-31T08:28:49.627Z,1.00
2023-03-31T08:31:19.588Z,1.00
2023-03-31T08:33:48.678Z,1.00
2023-03-31T08:36:17.131Z,1.00
2023-03-31T08:38:50.586Z,1.00
2023-03-31T08:41:30.580Z,1.00
2023-03-31T08:44:01.573Z,1.00
2023-03-31T08:46:34.315Z,1.00
2023-03-31T08:49:05.490Z,1.00
2023-03-31T08:51:47.462Z,1.00
2023-03-31T08:54:27.844Z,1.00
2023-03-31T08:56:56.420Z,1.00
2023-03-31T08:59:41.962Z,1.00
2023-03-31T09:02:19.452Z,1.00
2023-03-31T09:05:41.186Z,1.00
2023-03-31T09:08:36.046Z,1.00
2023-03-31T09:11:15.075Z,1.00
2023-03-31T09:14:06.941Z,1.00
2023-03-31T09:17:15.548Z,1.00
2023-03-31T09:20:10.087Z,1.00
2023-03-31T09:22:46.217Z,1.00
2023-03-31T09:25:20.840Z,1.00
2023-03-31T09:27:52.887Z,1.00
2023-03-31T09:30:24.299Z,1.00
2023-03-31T09:33:12.073Z,1.00
2023-03-31T09:35:40.701Z,1.00
2023-03-31T09:38:15.271Z,1.00
2023-03-31T09:40:44.348Z,1.00
2023-03-31T09:43:26.500Z,1.00
2023-03-31T09:46:08.445Z,1.00
2023-03-31T09:48:39.208Z,1.00
2023-03-31T09:51:18.607Z,1.00
2023-03-31T09:54:31.859Z,1.00
2023-03-31T09:57:00.472Z,1.00
2023-03-31T09:59:36.936Z,1.00
2023-03-31T10:02:22.581Z,1.00
2023-03-31T10:04:51.966Z,1.00
2023-03-31T10:07:26.030Z,1.00
2023-03-31T10:09:57.291Z,1.00
2023-03-31T10:12:29.899Z,1.00
2023-03-31T10:15:19.295Z,1.00
2023-03-31T10:20:31.615Z,1.00
2023-03-31T10:23:06.554Z,1.00
2023-03-31T10:25:35.677Z,1.00
2023-03-31T10:28:04.975Z,1.00
2023-03-31T10:30:39.025Z,1.00
2023-03-31T10:33:22.808Z,1.00
2023-03-31T10:36:15.011Z,1.00
2023-03-31T10:38:48.703Z,1.00
2023-03-31T10:41:27.173Z,1.00
2023-03-31T10:43:58.148Z,1.00
2023-03-31T10:46:50.465Z,1.00
2023-03-31T10:49:28.608Z,1.00
2023-03-31T10:51:58.715Z,1.00
2023-03-31T10:54:28.239Z,1.00
2023-03-31T10:57:06.448Z,1.00
2023-03-31T10:59:34.968Z,1.00
2023-03-31T11:02:34.591Z,1.00
2023-03-31T11:05:23.374Z,1.00
2023-03-31T11:08:28.133Z,1.00
2023-03-31T11:11:30.291Z,1.00
2023-03-31T11:14:09.608Z,1.00
2023-03-31T11:17:08.642Z,1.00
2023-03-31T11:19:43.670Z,1.00
2023-03-31T11:22:24.923Z,1.00
2023-03-31T11:25:22.024Z,1.00
2023-03-31T11:28:00.552Z,1.00
2023-03-31T11:30:43.967Z,1.00
2023-03-31T11:33:42.301Z,1.00
2023-03-31T11:36:46.089Z,1.00
2023-03-31T11:39:33.653Z,1.00
2023-03-31T11:42:17.726Z,1.00
2023-03-31T11:44:58.121Z,1.00
2023-03-31T11:47:35.856Z,1.00
2023-03-31T11:50:22.820Z,1.00
2023-03-31T11:53:22.483Z,1.00
2023-03-31T11:55:55.573Z,1.00
2023-03-31T11:58:37.048Z,1.00
2023-03-31T12:01:10.812Z,1.00
2023-03-31T12:03:42.313Z,1.00
2023-03-31T12:06:20.706Z,1.00
2023-03-31T12:08:59.535Z,1.00
2023-03-31T12:11:53.753Z,1.00
2023-03-31T12:14:28.311Z,1.00
2023-03-31T12:17:26.481Z,1.00
2023-03-31T12:20:11.463Z,1.00
2023-03-31T12:22:48.325Z,1.00
2023-03-31T12:25:23.701Z,1.00
2023-03-31T12:27:52.522Z,1.00
2023-03-31T12:30:35.320Z,1.00
2023-03-31T12:33:18.989Z,1.00
2023-03-31T12:36:17.073Z,1.00
2023-03-31T12:38:48.393Z,1.00
2023-03-31T12:41:31.559Z,1.00
2023-03-31T12:44:11.938Z,1.00
2023-03-31T12:47:14.196Z,1.00
2023-03-31T12:49:49.913Z,1.00
2023-03-31T12:52:41.069Z,1.00
2023-03-31T12:55:29.798Z,1.00
2023-03-31T12:58:25.935Z,1.00
2023-03-31T13:01:17.055Z,1.00
2023-03-31T13:04:05.944Z,1.00
2023-03-31T13:06:34.371Z,1.00
2023-03-31T13:09:28.419Z,1.00
2023-03-31T13:11:56.943Z,1.00
2023-03-31T13:14:36.785Z,1.00
2023-03-31T13:17:36.637Z,1.00
2023-03-31T13:20:28.483Z,1.00
2023-03-31T13:23:26.732Z,1.00
2023-03-31T13:25:59.829Z,1.00
2023-03-31T13:28:40.211Z,1.00
2023-03-31T13:31:11.183Z,1.00
2023-03-31T13:33:58.527Z,1.00
2023-03-31T13:36:35.885Z,1.00
2023-03-31T13:40:01.581Z,1.00
2023-03-31T13:42:50.595Z,1.00
2023-03-31T13:45:40.189Z,1.00
2023-03-31T13:48:17.492Z,1.00
2023-03-31T13:51:14.506Z,1.00
2023-03-31T13:54:07.473Z,1.00
2023-03-31T13:57:14.683Z,1.00
2023-03-31T14:00:13.151Z,1.00
2023-03-31T14:03:07.763Z,1.00
2023-03-31T14:05:46.289Z,1.00
2023-03-31T14:08:36.594Z,1.00
2023-03-31T14:11:19.319Z,1.00
2023-03-31T14:14:16.933Z,1.00
2023-03-31T14:16:50.775Z,1.00
2023-03-31T14:19:48.968Z,1.00
2023-03-31T14:22:46.253Z,1.00
2023-03-31T14:25:28.099Z,1.00
2023-03-31T14:28:01.802Z,1.00
2023-03-31T14:31:05.581Z,1.00
2023-03-31T14:33:49.255Z,1.00
2023-03-31T14:36:58.618Z,1.00
2023-03-31T14:39:41.387Z,1.00
2023-03-31T14:42:16.140Z,1.00
2023-03-31T14:44:47.173Z,1.00
2023-03-31T14:47:29.973Z,1.00
2023-03-31T14:50:15.819Z,1.00
2023-03-31T14:52:54.368Z,1.00
2023-03-31T14:55:44.195Z,1.00
2023-03-31T14:58:31.174Z,1.00
2023-03-31T15:01:00.693Z,1.00
2023-03-31T15:03:29.378Z,1.00
2023-03-31T15:06:00.663Z,1.00
2023-03-31T15:08:31.350Z,1.00
2023-03-31T15:14:00.740Z,1.00
2023-03-31T15:16:52.729Z,1.00
2023-03-31T15:19:26.338Z,1.00
2023-03-31T15:21:57.789Z,1.00
2023-03-31T15:24:26.421Z,1.00
2023-03-31T15:26:59.115Z,1.00
2023-03-31T15:29:52.660Z,1.00
2023-03-31T15:32:26.924Z,1.00
2023-03-31T15:34:58.741Z,1.00
2023-03-31T15:37:43.349Z,1.00
2023-03-31T15:40:27.159Z,1.00
2023-03-31T15:45:56.846Z,1.00
2023-03-31T15:48:34.338Z,1.00
2023-03-31T15:51:15.768Z,1.00
2023-03-31T15:53:49.215Z,1.00
2023-03-31T15:56:39.067Z,1.00
2023-03-31T15:59:25.308Z,1.00
2023-03-31T16:01:58.219Z,1.00
2023-03-31T16:04:34.886Z,1.00
2023-03-31T16:07:27.939Z,1.00
2023-03-31T16:10:19.400Z,1.00
2023-03-31T16:12:53.769Z,1.00
2023-03-31T16:15:37.515Z,1.00
2023-03-31T16:18:14.553Z,1.00
2023-03-31T16:20:54.663Z,1.00
2023-03-31T16:23:36.579Z,1.00
2023-03-31T16:26:05.591Z,1.00
2023-03-31T16:28:38.540Z,1.00
2023-03-31T16:31:41.173Z,1.00
2023-03-31T16:34:12.318Z,1.00
2023-03-31T16:36:41.641Z,1.00
2023-03-31T16:39:10.203Z,1.00
2023-03-31T16:41:39.666Z,1.00
2023-03-31T16:44:08.192Z,1.00
2023-03-31T16:46:36.964Z,1.00
2023-03-31T16:49:05.497Z,1.00
2023-03-31T16:51:33.958Z,1.00
2023-03-31T16:54:02.381Z,1.00
2023-03-31T16:56:30.830Z,1.00
2023-03-31T16:58:59.822Z,1.00
2023-03-31T17:01:28.456Z,1.00
2023-03-31T17:03:57.298Z,1.00
2023-03-31T17:06:25.834Z,1.00
2023-03-31T17:08:54.332Z,1.00
2023-03-31T17:11:23.666Z,1.00
2023-03-31T17:13:53.532Z,1.00
2023-03-31T17:16:29.816Z,1.00
2023-03-31T17:19:04.876Z,1.00
2023-03-31T17:21:33.466Z,1.00
2023-03-31T17:24:03.233Z,1.00
2023-03-31T17:26:31.838Z,1.00
2023-03-31T17:29:01.424Z,1.00
2023-03-31T17:31:31.608Z,1.00
2023-03-31T17:34:00.448Z,1.00
2023-03-31T17:36:29.289Z,1.00
2023-03-31T17:38:57.943Z,1.00
2023-03-31T17:41:26.608Z,1.00
2023-03-31T17:43:55.029Z,1.00
2023-03-31T17:46:23.771Z,1.00
2023-03-31T17:48:54.289Z,1.00
2023-03-31T17:51:23.955Z,1.00
2023-03-31T17:53:52.339Z,1.00
2023-03-31T17:56:20.795Z,1.00
2023-03-31T17:58:49.376Z,1.00
2023-03-31T18:01:17.840Z,1.00
2023-03-31T18:03:47.160Z,1.00
2023-03-31T18:06:16.272Z,1.00
2023-03-31T18:08:45.466Z,1.00
2023-03-31T18:11:14.224Z,1.00
2023-03-31T18:13:42.877Z,1.00
2023-03-31T18:16:13.572Z,1.00
2023-03-31T18:18:43.210Z,1.00
2023-03-31T18:21:13.932Z,1.00
2023-03-31T18:23:42.477Z,1.00
2023-03-31T18:26:13.331Z,1.00
2023-03-31T18:28:42.139Z,1.00
2023-03-31T18:31:11.662Z,1.00
2023-03-31T18:33:41.047Z,1.00
2023-03-31T18:36:14.558Z,1.00
2023-03-31T18:38:43.453Z,1.00
2023-03-31T18:41:13.438Z,1.00
2023-03-31T18:43:41.978Z,1.00
2023-03-31T18:46:11.761Z,1.00
2023-03-31T18:48:41.086Z,1.00
2023-03-31T18:51:10.321Z,1.00
2023-03-31T18:53:39.029Z,1.00
2023-03-31T18:56:07.576Z,1.00
2023-03-31T18:58:36.256Z,1.00
2023-03-31T19:01:04.774Z,1.00
2023-03-31T19:03:33.272Z,1.00
2023-03-31T19:06:13.580Z,1.00
2023-03-31T19:08:42.231Z,1.00
2023-03-31T19:11:16.505Z,1.00
2023-03-31T19:13:45.827Z,1.00
2023-03-31T19:16:14.474Z,1.00
2023-03-31T19:18:44.476Z,1.00
2023-03-31T19:21:12.901Z,1.00
2023-03-31T19:23:41.826Z,1.00
2023-03-31T19:26:16.672Z,1.00
2023-03-31T19:28:45.114Z,1.00
2023-03-31T19:31:13.735Z,1.00
2023-03-31T19:33:42.332Z,1.00
2023-03-31T19:36:10.836Z,1.00
2023-03-31T19:38:39.234Z,1.00
2023-03-31T19:41:08.386Z,1.00
2023-03-31T19:43:36.916Z,1.00
2023-03-31T19:46:05.492Z,1.00
2023-03-31T19:48:34.537Z,1.00
2023-03-31T19:51:09.785Z,1.00
2023-03-31T19:53:41.936Z,1.00
2023-03-31T19:56:15.378Z,1.00
2023-03-31T19:58:45.317Z,1.00
2023-03-31T20:01:28.066Z,1.00
2023-03-31T20:03:57.458Z,1.00
2023-03-31T20:06:28.954Z,1.00
2023-03-31T20:08:59.689Z,1.00
2023-03-31T20:11:29.842Z,1.00
2023-03-31T20:13:59.315Z,1.00
2023-03-31T20:16:30.041Z,1.00
2023-03-31T20:19:07.863Z,1.00
2023-03-31T20:21:38.573Z,1.00
2023-03-31T20:24:07.854Z,1.00
2023-03-31T20:26:36.436Z,1.00
2023-03-31T20:29:04.991Z,1.00
2023-03-31T20:31:38.153Z,1.00
2023-03-31T20:34:13.165Z,1.00
2023-03-31T20:36:43.083Z,1.00
2023-03-31T20:39:13.696Z,1.00
2023-03-31T20:41:42.785Z,1.00
2023-03-31T20:44:15.212Z,1.00
2023-03-31T20:46:45.488Z,1.00
2023-03-31T20:49:14.037Z,1.00
2023-03-31T20:51:43.410Z,1.00
2023-03-31T20:54:11.785Z,1.00
2023-03-31T20:56:42.145Z,1.00
2023-03-31T20:59:13.838Z,1.00
2023-03-31T21:01:43.171Z,1.00
2023-03-31T21:04:12.304Z,1.00
2023-03-31T21:06:43.330Z,1.00
2023-03-31T21:09:15.465Z,1.00
2023-03-31T21:11:44.097Z,1.00
2023-03-31T21:14:15.648Z,1.00
2023-03-31T21:16:44.387Z,1.00
2023-03-31T21:19:12.979Z,1.00
2023-03-31T21:21:42.351Z,1.00
2023-03-31T21:24:13.237Z,1.00
2023-03-31T21:26:42.200Z,1.00
2023-03-31T21:29:10.715Z,1.00
2023-03-31T21:31:39.598Z,1.00
2023-03-31T21:34:08.059Z,1.00
2023-03-31T21:36:36.565Z,1.00
2023-03-31T21:39:06.089Z,1.00
2023-03-31T21:41:34.550Z,1.00
2023-03-31T21:44:03.995Z,1.00
2023-03-31T21:46:34.231Z,1.00
2023-03-31T21:49:04.038Z,1.00
2023-03-31T21:51:32.779Z,1.00
2023-03-31T21:54:01.234Z,1.00
2023-03-31T21:56:31.964Z,1.00
2023-03-31T21:59:01.304Z,1.00
2023-03-31T22:01:30.001Z,1.00
2023-03-31T22:03:59.863Z,1.00
2023-03-31T22:06:28.408Z,1.00
2023-03-31T22:08:56.871Z,1.00
2023-03-31T22:11:25.352Z,1.00
2023-03-31T22:13:53.748Z,1.00
2023-03-31T22:16:23.626Z,1.00
2023-03-31T22:18:53.593Z,1.00
2023-03-31T22:21:27.912Z,1.00
2023-03-31T22:23:59.187Z,1.00
2023-03-31T22:26:29.765Z,1.00
2023-03-31T22:28:59.276Z,1.00
2023-03-31T22:31:28.003Z,1.00
2023-03-31T22:33:56.579Z,1.00
2023-03-31T22:36:25.044Z,1.00
2023-03-31T22:38:53.438Z,1.00
2023-03-31T22:41:21.837Z,1.00
2023-03-31T22:43:52.317Z,1.00
2023-03-31T22:46:20.841Z,1.00
2023-03-31T22:48:51.162Z,1.00
2023-03-31T22:51:19.702Z,1.00
2023-03-31T22:53:55.317Z,1.00
2023-03-31T22:56:24.528Z,1.00
2023-03-31T22:58:53.613Z,1.00
2023-03-31T23:01:22.847Z,1.00
2023-03-31T23:03:51.912Z,1.00
2023-03-31T23:06:20.442Z,1.00
2023-03-31T23:08:51.698Z,1.00
2023-03-31T23:11:20.086Z,1.00
2023-03-31T23:13:48.808Z,1.00
2023-03-31T23:16:22.993Z,5.70
2023-03-31T23:18:53.445Z,33.70
2023-03-31T23:21:27.906Z,43.30
2023-03-31T23:23:58.805Z,42.00
2023-03-31T23:26:28.723Z,17.50
2023-03-31T23:28:58.184Z,30.90
2023-03-31T23:31:32.550Z,40.20
2023-03-31T23:34:02.112Z,61.10
2023-03-31T23:36:31.844Z,63.60
2023-03-31T23:39:00.455Z,63.20
2023-03-31T23:41:28.864Z,79.60
2023-03-31T23:43:58.472Z,98.20
2023-03-31T23:46:27.505Z,99.90
2023-03-31T23:48:56.600Z,96.90
2023-03-31T23:51:25.121Z,99.90
2023-03-31T23:53:53.957Z,99.00
2023-03-31T23:56:22.506Z,97.40
2023-03-31T23:58:50.946Z,94.10
